Grindelwald, Switzerland
Current Conditions -  °F | °C
As of 8:50 AM on Wednesday 26 Nov 2014 (Local Time) from LSMM Reporting Station
Broken Clouds Broken Clouds  
Wind Chill: 41°   Ceiling: 13000
Heat Index: 41°   Visibility: 6mi
Dew Point: 41°   Wind: 2mph
Humidity: 100%   Direction: 120°ESE
Pressure: 29.97"   Gusts: NA
Location:  46.62°N, 8.03°E
Report Text: LSMM 260750Z 12002KT 9999 BKN130 05/05 Q1015 RMK WHT
Loading
Personal Weather Stations






























Interactive Weather Map New forecast layout! Learn more

10-Day Weather Forecast

Advertisements
Track Severe Weather on mobile